Wenatchee, WA (98807)

10:46 PM PDT on October 24, 2014 (GMT -0700)
Pitcher Canyon | Change Station
CLOSE
Current Station
Personal Weather Station
Location: Wenatchee, WA
Elevation: 1440 ft
Nearby Weather Stations

Elev 1440 ft 47.37 °N, 120.33 °W | Updated 36 seconds ago

Overcast
Overcast
46.4 °F
Feels Like 46 °F
N
0.0
Wind Variable Wind from West
Gusts 0.0 mph

Today
High -- | Low -- °F
--% Chance of Precip.
Yesterday
High -- | Low -- °F
Precip. -- in
7:32 AM 5:56 PM
New Moon, 2% visible
Pressure 29.97 in
Visibility 10.0 miles
Clouds Mostly Cloudy 900 ft
Overcast 2200 ft
Windchill 46 °F
Dew Point 45 °F
Humidity 94%
Rainfall 0.18 in
Snow Depth 0 in , 0 in , 0 in
UV 0 out of 12
Pollen 1.40 out of 12
Air Quality Not available.
Flu Activity Sporadic
SPECI KEAT 250512Z AUTO 28007KT 10SM -RA BKN009 OVC022 09/07 A2997 RMK AO2 CIG 006V011 P0000 T00890067

More Conditions Fewer Conditions

Pressure 29.97 in
Visibility 10.0 miles
Clouds Mostly Cloudy 900 ft
Overcast 2200 ft
Windchill 46 °F
Dew Point 45 °F
Humidity 94%
Rainfall 0.18 in
Snow Depth 0 in , 0 in , 0 in
UV 0 out of 12
Pollen 1.40 out of 12
Air Quality Not available.
Flu Activity Sporadic
SPECI KEAT 250512Z AUTO 28007KT 10SM -RA BKN009 OVC022 09/07 A2997 RMK AO2 CIG 006V011 P0000 T00890067

More Conditions Fewer Conditions

10-Day Weather Forecast

Almanac

Astronomy

Oct. 24, 2014 Rise Set
Actual Time 7:32 AM PDT 5:56 PM PDT
Civil Twilight 7:01 AM PDT 6:28 PM PDT
Nautical Twilight 6:25 AM PDT 7:04 PM PDT
Astronomical Twilight 5:50 AM PDT 7:39 PM PDT
Moon 8:19 AM PDT (10/24) 6:36 PM PDT (10/24)
Length of Visible Light 11h 27m
Length of Day
10h 24m
Tomorrow will be 3m 11s shorter.
New Moon, 2% of the Moon is Illuminated
Oct 25
New Moon
Oct 30
First Quarter
Nov 6
Full
Nov 14
Last Quarter
Nov 22
New

Yesterday's Extremes

State Highs State Lows

Community

WunderPhotos

Upload Photos

1,764,785 photos uploaded!

Nearby

Snow Depth

Station Depth Elevation
Trough 0 in 5300 ft
Grouse Camp 0 in 5380 ft
Blewett Pass 0 in 4270 ft
Sasse Ridge 0 in 4200 ft
Pope Ridge 0 in 3540 ft

Earthquake Activity

City Distance Mag. Time & Date
No recent earthquake activity has been reported nearby.
Minimum magnitude displayed is 2.5.

Coastal Water Temperatures

Place Temperature
No Stations Reporting

Nearby Weather Stations